메인 페이지
METAR-TAF:

METAR-TAF

공항 :

Ozark, 앨라배마, 미국

위도: 31-17N, 경도: 085-43W, 고도: 91m

현재 날씨관측

예보는 38분 전, 22:56시(UTC)에 발표되었습니다.
남남동6kt
온도 25°C
습도 79%
기압 1012 hPa
시정: 16.1km
고도 20000ft 상공 구름 조금

METAR: KOZR 262256Z AUTO 15006KT 10SM FEW200 25/21 A2987 RMK AO2 SLP115 T02480213 $

시각: 18:34 (23:34 UTC)

예보

예보는 7 시간 34분 전, 16:00시(UTC)에 발표되었습니다.
예보 대상 시간: 26일 16시부터 27일 22시까지 (UTC)
남남동6kt
시정 10km 이상
고도 1000ft 상공 구름 보통
고도 5000ft 상공 구름 많음
일시적
26일 17시부터 26일 24시까지 (UTC)
12kt, 순간 최대 풍속 18kt
시정: 6000m
고도 700ft 상공 구름 보통
고도 3500ft 상공 구름 많음, 적란운.
뇌우, 약한비
전환 중
27일 03시부터 27일 04시까지 (UTC)
북동9kt
시정: 8000m
고도 1000ft 상공 구름 많음
고도 3000ft 상공 구름 많음
박무

TAF: KOZR 261600Z 2616/2722 15006KT 9999 SCT010 BKN050 QNH2987INS TEMPO 2617/2624 17012G18KT 6000 -TSRA SCT007 BKN035CB BECMG 2703/2704 05009KT 8000 BR BKN010 BKN030 QNH2985INS TX31/2618Z TN20/2709Z

4,000개 이상의 공항 관측 자료 및 예보 (METAR 및 TAF 보고).

지도상에서 검색 가능한 기상관측소가 노란 점과 빨간 점으로 표시되어 있습니다.

기상관측소 명을 보려면 표시 위로 마우스를 이동하세요.

날씨 관측과 예보를 보려면 클릭하세요.

지도 변경 : 확대하려면 엑스 표시가 있는 녹색 버튼, 축소하려면 빼기 표시가 있는 녹색 버튼, 다음 페이지의 지도를 보려면 녹색 화살표를 클릭하세요.


METAR-TAF: